Time;durP1;ratioP1;P1;durP2;ratioP2;P2;SDS_P1;SDS_P2;PMS_P1;PMS_P2;Temp;Humidity;BMP_temperature;BMP_pressure;BME280_temperature;BME280_humidity;BME280_pressure;Samples;Min_cycle;Max_cycle;Signal;HPM_P1;HPM_P2
2022/02/03 00:04:54;;;;;;;1.17;0.57;;;;;;;;;;4955294;29;20121;-59
2022/02/03 00:07:25;;;;;;;2.10;1.23;;;;;;;;;;4955184;29;20042;-64
2022/02/03 00:23:52;;;;;;;4.53;0.93;;;;;;;;;;4953323;29;20538;-64
2022/02/03 00:26:03;;;;;;;6.05;1.25;;;;;;;;;;4955265;28;20057;-64
2022/02/03 00:28:32;;;;;;;0.63;0.10;;;;;;;;;;4955903;29;20024;-64
2022/02/03 00:31:09;;;;;;;3.87;0.20;;;;;;;;;;4955250;28;20082;-64
2022/02/03 00:33:49;;;;;;;6.40;1.07;;;;;;;;;;4950905;29;20078;-64
2022/02/03 00:36:37;;;;;;;4.20;0.90;;;;;;;;;;4950914;29;20027;-65
2022/02/03 00:52:21;;;;;;;9.03;0.90;;;;;;;;;;4951419;28;20130;-62
2022/02/03 00:54:47;;;;;;;0.33;0.33;;;;;;;;;;4954083;28;20050;-64
2022/02/03 00:57:16;;;;;;;1.07;0.20;;;;;;;;;;4955332;28;20082;-64
2022/02/03 01:00:04;;;;;;;0.93;0.20;;;;;;;;;;4954577;28;20069;-61
2022/02/03 01:02:31;;;;;;;4.37;0.23;;;;;;;;;;4954791;28;20534;-63
2022/02/03 01:04:59;;;;;;;1.60;0.77;;;;;;;;;;4956414;28;20023;-64
2022/02/03 01:07:25;;;;;;;1.20;0.70;;;;;;;;;;4954572;29;20114;-64
2022/02/03 01:10:03;;;;;;;0.30;0.10;;;;;;;;;;4953187;29;20393;-65
2022/02/03 01:15:07;;;;;;;0.73;0.30;;;;;;;;;;4954444;28;20428;-63
2022/02/03 01:45:01;;;;;;;8.13;0.50;;;;;;;;;;4957971;28;20130;-63
2022/02/03 01:52:48;;;;;;;1.83;0.30;;;;;;;;;;4950094;28;20504;-63
2022/02/03 01:55:15;;;;;;;2.07;1.30;;;;;;;;;;4956545;28;20007;-65
2022/02/03 01:57:41;;;;;;;0.43;0.43;;;;;;;;;;4961852;28;20038;-63
2022/02/03 02:00:11;;;;;;;5.13;0.47;;;;;;;;;;4953725;29;20023;-63
2022/02/03 02:02:42;;;;;;;10.13;0.80;;;;;;;;;;4953321;29;20031;-63
2022/02/03 02:05:26;;;;;;;0.20;0.10;;;;;;;;;;4953652;28;20055;-64
2022/02/03 02:07:56;;;;;;;4.23;1.20;;;;;;;;;;4942362;29;20046;-64
2022/02/03 02:11:05;;;;;;;4.00;1.70;;;;;;;;;;4953767;28;20102;-64
2022/02/03 02:14:06;;;;;;;15.50;2.43;;;;;;;;;;4953671;28;20020;-64
2022/02/03 02:39:28;;;;;;;2.10;0.33;;;;;;;;;;4946447;29;20042;-65
2022/02/03 02:44:54;;;;;;;0.43;0.40;;;;;;;;;;4954246;29;20037;-65
2022/02/03 02:47:27;;;;;;;0.47;0.33;;;;;;;;;;4954168;28;20027;-64
2022/02/03 02:50:12;;;;;;;5.20;0.67;;;;;;;;;;4953122;28;20023;-64
2022/02/03 02:52:45;;;;;;;0.85;0.50;;;;;;;;;;4948937;28;20082;-65
2022/02/03 03:35:54;;;;;;;1.60;0.87;;;;;;;;;;4950081;29;20046;-65
2022/02/03 03:38:21;;;;;;;3.50;0.73;;;;;;;;;;4949713;29;20031;-64
2022/02/03 03:40:47;;;;;;;1.97;1.20;;;;;;;;;;4951956;28;20043;-64
2022/02/03 03:43:15;;;;;;;1.17;0.10;;;;;;;;;;4952772;28;20089;-64
2022/02/03 03:45:45;;;;;;;1.73;0.30;;;;;;;;;;4955899;28;20058;-64
2022/02/03 03:48:13;;;;;;;1.93;0.00;;;;;;;;;;4956781;29;20327;-65
2022/02/03 03:50:40;;;;;;;2.93;0.10;;;;;;;;;;4951762;28;20070;-64
2022/02/03 03:53:14;;;;;;;10.43;0.77;;;;;;;;;;4954479;29;20034;-63
2022/02/03 03:56:22;;;;;;;3.33;0.90;;;;;;;;;;4955690;28;20015;-64
2022/02/03 04:30:10;;;;;;;0.57;0.50;;;;;;;;;;4934225;29;20093;-66
2022/02/03 04:32:54;;;;;;;2.97;0.10;;;;;;;;;;4933354;29;20512;-64
2022/02/03 05:02:55;;;;;;;1.33;0.27;;;;;;;;;;4938395;29;20186;-61
2022/02/03 05:08:40;;;;;;;0.43;0.20;;;;;;;;;;4959109;28;20166;-65
2022/02/03 05:11:29;;;;;;;4.47;0.80;;;;;;;;;;4955155;28;20027;-65
2022/02/03 05:35:06;;;;;;;1.08;0.55;;;;;;;;;;4963034;28;20090;-63
2022/02/03 05:43:26;;;;;;;2.22;0.38;;;;;;;;;;4960492;28;20061;-65
2022/02/03 05:48:57;;;;;;;0.35;0.35;;;;;;;;;;4960076;28;20023;-65
2022/02/03 05:51:35;;;;;;;1.25;0.60;;;;;;;;;;4942532;28;20118;-64
2022/02/03 06:02:41;;;;;;;3.70;1.88;;;;;;;;;;4951697;29;20077;-62
2022/02/03 06:05:12;;;;;;;4.68;1.33;;;;;;;;;;4949960;29;20090;-65
2022/02/03 06:07:50;;;;;;;1.40;0.38;;;;;;;;;;4945010;28;20041;-66
2022/02/03 06:12:56;;;;;;;1.55;1.20;;;;;;;;;;4951879;28;20031;-63
2022/02/03 06:15:34;;;;;;;0.98;0.10;;;;;;;;;;4944406;29;20388;-67
2022/02/03 06:29:04;;;;;;;1.23;1.20;;;;;;;;;;4954007;28;20085;-64
2022/02/03 06:31:29;;;;;;;6.28;0.35;;;;;;;;;;4953782;28;20019;-66
2022/02/03 06:33:55;;;;;;;0.20;0.20;;;;;;;;;;4953170;28;20504;-64
2022/02/03 06:36:21;;;;;;;0.80;0.68;;;;;;;;;;4954270;29;20035;-65
2022/02/03 06:38:46;;;;;;;1.88;0.45;;;;;;;;;;4951101;28;20019;-65
2022/02/03 06:41:11;;;;;;;4.45;1.08;;;;;;;;;;4953213;29;20472;-65
2022/02/03 06:43:36;;;;;;;1.13;0.73;;;;;;;;;;4952969;28;20365;-64
2022/02/03 06:46:06;;;;;;;4.18;0.85;;;;;;;;;;4953170;28;20037;-65
2022/02/03 06:48:33;;;;;;;0.93;0.88;;;;;;;;;;4953075;29;20082;-65
2022/02/03 06:51:07;;;;;;;0.77;0.20;;;;;;;;;;4950625;28;20063;-66
2022/02/03 06:53:36;;;;;;;0.65;0.65;;;;;;;;;;4951724;28;20031;-64
2022/02/03 06:56:13;;;;;;;0.52;0.03;;;;;;;;;;4953087;28;20122;-64
2022/02/03 06:58:50;;;;;;;0.00;0.00;;;;;;;;;;4953683;28;20033;-64
2022/02/03 07:01:21;;;;;;;5.25;1.30;;;;;;;;;;4957269;28;20140;-66
2022/02/03 07:03:57;;;;;;;0.28;0.20;;;;;;;;;;4946090;28;20035;-65
2022/02/03 07:06:22;;;;;;;5.38;1.38;;;;;;;;;;4938822;29;20027;-64
2022/02/03 07:08:49;;;;;;;0.35;0.10;;;;;;;;;;4952492;28;20479;-66
2022/02/03 07:11:18;;;;;;;0.57;0.20;;;;;;;;;;4953612;28;20027;-64
2022/02/03 07:13:44;;;;;;;3.05;0.95;;;;;;;;;;4963609;28;20031;-66
2022/02/03 07:16:09;;;;;;;1.48;0.40;;;;;;;;;;4953717;28;20025;-65
2022/02/03 07:18:34;;;;;;;0.35;0.28;;;;;;;;;;4951028;28;20027;-64
2022/02/03 07:20:59;;;;;;;1.90;0.45;;;;;;;;;;4948015;28;20031;-65
2022/02/03 07:23:25;;;;;;;1.67;0.50;;;;;;;;;;4957237;28;20082;-64
2022/02/03 07:25:50;;;;;;;0.68;0.43;;;;;;;;;;4955574;29;20062;-65
2022/02/03 07:28:15;;;;;;;4.35;0.65;;;;;;;;;;4954401;29;20039;-64
2022/02/03 07:30:40;;;;;;;1.27;0.80;;;;;;;;;;4954984;28;20028;-64
2022/02/03 07:33:06;;;;;;;0.35;0.10;;;;;;;;;;4955322;28;20035;-65
2022/02/03 07:35:34;;;;;;;0.80;0.20;;;;;;;;;;4954432;29;20042;-64
2022/02/03 07:38:01;;;;;;;0.38;0.28;;;;;;;;;;4955659;28;20106;-64
2022/02/03 07:40:27;;;;;;;4.05;1.38;;;;;;;;;;4956421;28;20031;-64
2022/02/03 07:42:54;;;;;;;0.40;0.40;;;;;;;;;;4955512;28;20448;-65
2022/02/03 07:45:20;;;;;;;1.60;1.50;;;;;;;;;;4956168;29;20031;-65
2022/02/03 07:47:46;;;;;;;1.98;0.65;;;;;;;;;;4970993;28;20035;-63
2022/02/03 07:50:12;;;;;;;2.80;0.95;;;;;;;;;;4953971;28;20046;-62
2022/02/03 07:52:37;;;;;;;2.75;0.50;;;;;;;;;;4953330;28;20468;-65
2022/02/03 07:55:03;;;;;;;0.30;0.10;;;;;;;;;;4954988;29;20528;-66
2022/02/03 07:57:28;;;;;;;3.30;0.95;;;;;;;;;;4956586;28;20052;-64
2022/02/03 07:59:55;;;;;;;0.25;0.20;;;;;;;;;;4956165;29;20389;-65
2022/02/03 08:02:20;;;;;;;0.93;0.70;;;;;;;;;;4955459;28;20448;-65
2022/02/03 08:04:47;;;;;;;2.22;0.98;;;;;;;;;;4955392;28;20264;-65
2022/02/03 08:07:15;;;;;;;3.53;0.30;;;;;;;;;;4956066;29;20125;-65
2022/02/03 08:09:56;;;;;;;2.55;0.52;;;;;;;;;;4954745;29;20166;-65
2022/02/03 08:12:27;;;;;;;0.30;0.20;;;;;;;;;;4955987;28;20115;-65
2022/02/03 08:14:52;;;;;;;1.08;0.15;;;;;;;;;;4943076;28;20031;-66
2022/02/03 08:17:22;;;;;;;7.60;1.17;;;;;;;;;;4955605;28;20031;-65
2022/02/03 08:22:18;;;;;;;2.72;0.30;;;;;;;;;;4950043;29;20069;-65
2022/02/03 08:24:53;;;;;;;2.83;0.55;;;;;;;;;;4954090;29;20032;-62
2022/02/03 08:30:08;;;;;;;0.15;0.00;;;;;;;;;;4955187;28;20038;-66
2022/02/03 08:32:37;;;;;;;4.13;1.73;;;;;;;;;;4955465;28;20132;-63
2022/02/03 08:37:43;;;;;;;1.98;1.05;;;;;;;;;;4954931;29;20122;-66
2022/02/03 08:40:14;;;;;;;0.57;0.55;;;;;;;;;;4944723;28;20114;-64
2022/02/03 08:42:39;;;;;;;5.43;0.70;;;;;;;;;;4952789;29;20030;-65
2022/02/03 08:45:07;;;;;;;4.03;0.65;;;;;;;;;;4954234;29;20024;-64
2022/02/03 08:47:32;;;;;;;1.85;1.08;;;;;;;;;;4954448;28;20027;-64
2022/02/03 08:49:57;;;;;;;1.60;1.35;;;;;;;;;;4953323;28;20453;-64
2022/02/03 08:52:32;;;;;;;1.48;0.73;;;;;;;;;;4951101;28;20038;-64
2022/02/03 08:55:08;;;;;;;1.60;1.50;;;;;;;;;;4952123;29;20075;-66
2022/02/03 10:02:19;;;;;;;4.40;1.90;;;;;;;;;;4932346;29;20035;-65
2022/02/03 10:04:48;;;;;;;4.45;1.38;;;;;;;;;;4918672;29;20027;-66
2022/02/03 10:07:25;;;;;;;3.17;0.68;;;;;;;;;;4932265;29;20063;-68
2022/02/03 10:09:54;;;;;;;6.70;1.88;;;;;;;;;;4931321;29;20335;-65
2022/02/03 10:12:28;;;;;;;3.50;1.27;;;;;;;;;;4932060;29;20123;-67
2022/02/03 10:14:54;;;;;;;2.95;1.25;;;;;;;;;;4932526;29;20126;-67
2022/02/03 10:17:30;;;;;;;3.50;1.08;;;;;;;;;;4916293;29;20047;-68
2022/02/03 10:19:59;;;;;;;2.33;1.23;;;;;;;;;;4903472;29;20044;-67
2022/02/03 10:22:26;;;;;;;0.40;0.32;;;;;;;;;;4927503;29;20035;-67
2022/02/03 10:24:59;;;;;;;0.45;0.45;;;;;;;;;;4936424;29;20055;-67
2022/02/03 10:27:29;;;;;;;0.63;0.63;;;;;;;;;;4953463;28;20536;-67
2022/02/03 10:30:13;;;;;;;0.85;0.45;;;;;;;;;;4953017;29;20027;-66
2022/02/03 10:32:39;;;;;;;0.32;0.32;;;;;;;;;;4952758;29;20472;-67
2022/02/03 10:35:19;;;;;;;5.90;1.42;;;;;;;;;;4953257;28;20035;-67
2022/02/03 10:37:49;;;;;;;1.58;0.60;;;;;;;;;;4952961;29;20072;-68
2022/02/03 10:53:27;;;;;;;2.25;0.90;;;;;;;;;;4951208;28;20069;-62
2022/02/03 10:58:54;;;;;;;0.80;0.80;;;;;;;;;;4946925;29;20117;-66
2022/02/03 11:01:49;;;;;;;2.35;1.20;;;;;;;;;;4956344;29;20361;-66
2022/02/03 11:09:23;;;;;;;1.23;0.40;;;;;;;;;;4954360;29;20035;-67
2022/02/03 11:11:55;;;;;;;0.75;0.22;;;;;;;;;;4956128;28;20333;-66
2022/02/03 11:14:22;;;;;;;3.00;0.85;;;;;;;;;;4956775;28;20074;-67
2022/02/03 11:16:47;;;;;;;1.10;0.50;;;;;;;;;;4956004;28;20055;-67
2022/02/03 11:19:15;;;;;;;3.22;0.80;;;;;;;;;;4955540;28;20027;-66
2022/02/03 11:21:45;;;;;;;0.93;0.35;;;;;;;;;;4952047;28;20027;-66
2022/02/03 11:24:20;;;;;;;1.30;0.70;;;;;;;;;;4953421;28;20023;-67
2022/02/03 11:27:07;;;;;;;2.38;0.17;;;;;;;;;;4955396;28;20058;-66
2022/02/03 11:30:15;;;;;;;0.45;0.38;;;;;;;;;;4952972;28;20042;-65
2022/02/03 11:33:00;;;;;;;0.88;0.30;;;;;;;;;;4950086;28;20079;-66
2022/02/03 11:38:57;;;;;;;1.80;0.75;;;;;;;;;;4955388;28;20141;-63
2022/02/03 11:41:36;;;;;;;0.90;0.40;;;;;;;;;;4955848;28;20046;-66
2022/02/03 11:53:13;;;;;;;0.77;0.77;;;;;;;;;;4950366;28;20776;-68
2022/02/03 12:01:34;;;;;;;1.33;0.30;;;;;;;;;;4934339;29;20527;-66
2022/02/03 12:15:48;;;;;;;0.20;0.10;;;;;;;;;;4934103;29;20034;-66
2022/02/03 12:20:27;;;;;;;1.00;0.50;;;;;;;;;;4932214;29;20039;-61
2022/02/03 12:23:03;;;;;;;1.77;0.30;;;;;;;;;;4931742;29;20031;-66
2022/02/03 12:25:46;;;;;;;0.35;0.35;;;;;;;;;;4933404;29;20036;-66
2022/02/03 12:28:33;;;;;;;0.75;0.40;;;;;;;;;;4933730;29;20126;-65
2022/02/03 12:39:12;;;;;;;0.25;0.10;;;;;;;;;;4953129;29;20748;-66
2022/02/03 12:41:48;;;;;;;0.57;0.40;;;;;;;;;;4955441;29;20111;-65
2022/02/03 12:44:20;;;;;;;0.40;0.30;;;;;;;;;;4955347;28;20067;-66
2022/02/03 12:46:46;;;;;;;0.73;0.40;;;;;;;;;;4955550;28;20035;-66
2022/02/03 12:49:11;;;;;;;0.30;0.13;;;;;;;;;;4955153;28;20035;-66
2022/02/03 12:51:36;;;;;;;0.90;0.20;;;;;;;;;;4949303;28;20031;-64
2022/02/03 12:54:27;;;;;;;0.93;0.32;;;;;;;;;;4943616;28;20152;-66
2022/02/03 12:56:59;;;;;;;0.32;0.15;;;;;;;;;;4950447;29;20031;-65
2022/02/03 12:59:25;;;;;;;0.40;0.40;;;;;;;;;;4952111;28;20024;-66
2022/02/03 13:01:50;;;;;;;0.10;0.10;;;;;;;;;;4936200;29;20401;-66
2022/02/03 13:04:18;;;;;;;0.55;0.20;;;;;;;;;;4935846;29;20042;-65
2022/02/03 13:06:56;;;;;;;0.60;0.40;;;;;;;;;;4935924;29;20036;-67
2022/02/03 13:09:35;;;;;;;0.52;0.22;;;;;;;;;;4952879;28;20039;-67
2022/02/03 13:12:15;;;;;;;1.35;0.38;;;;;;;;;;4954019;28;20067;-65
2022/02/03 13:14:46;;;;;;;0.40;0.10;;;;;;;;;;4954522;28;20480;-67
2022/02/03 13:17:18;;;;;;;0.63;0.20;;;;;;;;;;4953990;28;20396;-68
2022/02/03 13:20:01;;;;;;;0.38;0.20;;;;;;;;;;4952507;29;20122;-67
2022/02/03 13:27:25;;;;;;;0.77;0.47;;;;;;;;;;4954436;28;20063;-66
2022/02/03 13:32:24;;;;;;;0.40;0.40;;;;;;;;;;4953697;28;20035;-66
2022/02/03 13:35:17;;;;;;;0.32;0.10;;;;;;;;;;4954295;29;20468;-67
2022/02/03 13:37:55;;;;;;;0.22;0.10;;;;;;;;;;4954281;29;20059;-65
2022/02/03 13:40:22;;;;;;;0.50;0.22;;;;;;;;;;4949213;29;20479;-67
2022/02/03 13:42:50;;;;;;;0.50;0.32;;;;;;;;;;4953570;28;20031;-66
2022/02/03 13:45:19;;;;;;;0.40;0.30;;;;;;;;;;4954123;29;20520;-63
2022/02/03 13:47:46;;;;;;;0.68;0.57;;;;;;;;;;4953140;28;20054;-68
2022/02/03 13:50:16;;;;;;;0.52;0.40;;;;;;;;;;4941801;29;20404;-68
2022/02/03 13:52:47;;;;;;;0.38;0.35;;;;;;;;;;4949021;28;20019;-66
2022/02/03 14:14:28;;;;;;;1.17;0.38;;;;;;;;;;4953989;29;20137;-67
2022/02/03 14:22:00;;;;;;;0.22;0.10;;;;;;;;;;4945645;28;20503;-68
2022/02/03 14:27:03;;;;;;;0.10;0.10;;;;;;;;;;4952921;29;20061;-66
2022/02/03 14:29:31;;;;;;;0.80;0.28;;;;;;;;;;4953176;28;20024;-68
2022/02/03 14:32:04;;;;;;;0.40;0.35;;;;;;;;;;4953550;28;20027;-67
2022/02/03 14:34:32;;;;;;;1.15;0.47;;;;;;;;;;4945058;29;20074;-67
2022/02/03 14:37:03;;;;;;;0.30;0.25;;;;;;;;;;4952363;28;20038;-64
2022/02/03 14:39:47;;;;;;;0.10;0.10;;;;;;;;;;4951339;28;20033;-67
2022/02/03 14:42:12;;;;;;;0.52;0.28;;;;;;;;;;4952087;29;20541;-68
2022/02/03 14:44:41;;;;;;;0.32;0.20;;;;;;;;;;4952910;28;20094;-67
2022/02/03 14:47:07;;;;;;;0.65;0.65;;;;;;;;;;4952796;29;20031;-68
2022/02/03 14:49:33;;;;;;;0.45;0.30;;;;;;;;;;4951447;28;20034;-66
2022/02/03 14:52:12;;;;;;;1.83;0.40;;;;;;;;;;4937445;28;20440;-67
2022/02/03 15:00:06;;;;;;;0.52;0.20;;;;;;;;;;4952750;28;20119;-63
2022/02/03 15:02:31;;;;;;;1.45;0.32;;;;;;;;;;4952722;29;20142;-66
2022/02/03 15:05:05;;;;;;;0.40;0.20;;;;;;;;;;4952780;28;20027;-66
2022/02/03 15:07:30;;;;;;;0.73;0.20;;;;;;;;;;4948522;28;20118;-65
2022/02/03 15:12:54;;;;;;;0.68;0.50;;;;;;;;;;4953844;28;20020;-65
2022/02/03 15:15:19;;;;;;;2.35;0.20;;;;;;;;;;4951985;28;20046;-66
2022/02/03 15:17:44;;;;;;;0.73;0.50;;;;;;;;;;4951669;29;20027;-66
2022/02/03 15:20:09;;;;;;;0.52;0.30;;;;;;;;;;4951471;29;20078;-66
2022/02/03 15:22:35;;;;;;;0.30;0.30;;;;;;;;;;4941661;28;20019;-63
2022/02/03 15:25:02;;;;;;;0.52;0.30;;;;;;;;;;4959025;28;20389;-66
2022/02/03 15:27:27;;;;;;;0.90;0.73;;;;;;;;;;4952762;28;20023;-66
2022/02/03 15:29:53;;;;;;;2.38;0.25;;;;;;;;;;4951428;29;20404;-66
2022/02/03 15:32:18;;;;;;;0.63;0.40;;;;;;;;;;4957477;28;20035;-60
2022/02/03 15:34:44;;;;;;;0.63;0.20;;;;;;;;;;4950978;28;20034;-66
2022/02/03 15:37:14;;;;;;;1.40;1.30;;;;;;;;;;4952710;28;20027;-67
2022/02/03 15:39:48;;;;;;;2.15;0.40;;;;;;;;;;4951343;28;20106;-66
2022/02/03 15:42:17;;;;;;;0.50;0.25;;;;;;;;;;4948062;28;20528;-65
2022/02/03 15:44:46;;;;;;;0.75;0.43;;;;;;;;;;4951545;28;20135;-65
2022/02/03 15:47:21;;;;;;;0.47;0.25;;;;;;;;;;4951094;28;20031;-65
2022/02/03 16:19:13;;;;;;;0.63;0.55;;;;;;;;;;4951443;28;20098;-66
2022/02/03 16:21:45;;;;;;;0.57;0.22;;;;;;;;;;4943298;28;20020;-65
2022/02/03 16:31:55;;;;;;;1.20;0.30;;;;;;;;;;4957777;28;20508;-66
2022/02/03 16:43:47;;;;;;;0.77;0.35;;;;;;;;;;4954500;28;20464;-66
2022/02/03 16:51:47;;;;;;;0.35;0.30;;;;;;;;;;4947927;28;20380;-66
2022/02/03 16:54:15;;;;;;;0.57;0.10;;;;;;;;;;4947329;28;20433;-66
2022/02/03 16:56:42;;;;;;;0.20;0.10;;;;;;;;;;4953997;28;20106;-66
2022/02/03 16:59:07;;;;;;;0.50;0.20;;;;;;;;;;4954714;28;20047;-63
2022/02/03 17:01:33;;;;;;;0.63;0.30;;;;;;;;;;4954859;29;20027;-65
2022/02/03 17:03:58;;;;;;;0.38;0.32;;;;;;;;;;4953646;29;20074;-65
2022/02/03 17:06:23;;;;;;;0.40;0.20;;;;;;;;;;4955004;29;20027;-67
2022/02/03 17:08:48;;;;;;;0.50;0.22;;;;;;;;;;4952986;29;20020;-66
2022/02/03 17:11:14;;;;;;;0.80;0.30;;;;;;;;;;4955002;28;20054;-66
2022/02/03 17:13:39;;;;;;;0.50;0.28;;;;;;;;;;4953820;28;20027;-65
2022/02/03 17:16:05;;;;;;;0.77;0.35;;;;;;;;;;4954458;28;20097;-65
2022/02/03 17:18:30;;;;;;;0.77;0.22;;;;;;;;;;4953746;29;20102;-66
2022/02/03 17:20:56;;;;;;;0.90;0.22;;;;;;;;;;4948308;29;20118;-66
2022/02/03 17:23:23;;;;;;;0.85;0.52;;;;;;;;;;4952664;28;20059;-65
2022/02/03 17:28:23;;;;;;;0.30;0.20;;;;;;;;;;4954368;29;20503;-66
2022/02/03 17:31:11;;;;;;;1.17;0.40;;;;;;;;;;4951226;28;20058;-61
2022/02/03 18:50:58;;;;;;;1.52;1.02;;;;;;;;;;4943142;28;20027;-66
2022/02/03 18:53:42;;;;;;;0.55;0.45;;;;;;;;;;4944380;28;20536;-65
2022/02/03 18:56:17;;;;;;;0.85;0.35;;;;;;;;;;4946263;29;20046;-64
2022/02/03 18:59:07;;;;;;;1.27;1.08;;;;;;;;;;4947074;28;20126;-67
2022/02/03 19:01:51;;;;;;;1.35;0.60;;;;;;;;;;4948114;28;20035;-66
2022/02/03 19:15:20;;;;;;;1.70;1.13;;;;;;;;;;4943912;28;20776;-66
2022/02/03 19:28:57;;;;;;;1.95;1.48;;;;;;;;;;4955751;28;20042;-66
2022/02/03 20:04:31;;;;;;;2.00;1.05;;;;;;;;;;4950664;28;20027;-67
2022/02/03 20:11:50;;;;;;;1.77;1.10;;;;;;;;;;4951676;29;20039;-68
2022/02/03 20:14:16;;;;;;;3.63;1.05;;;;;;;;;;4954672;28;20027;-66
2022/02/03 20:16:42;;;;;;;3.05;2.10;;;;;;;;;;4952596;29;20028;-66
2022/02/03 20:19:07;;;;;;;1.92;0.82;;;;;;;;;;4954927;28;20037;-66
2022/02/03 20:21:35;;;;;;;2.90;1.00;;;;;;;;;;4950364;28;20450;-67
2022/02/03 20:24:00;;;;;;;1.58;0.85;;;;;;;;;;4953273;28;20035;-68
2022/02/03 20:26:26;;;;;;;3.03;1.67;;;;;;;;;;4953586;28;20098;-67
2022/02/03 20:28:51;;;;;;;2.00;1.48;;;;;;;;;;4954911;28;20035;-67
2022/02/03 20:31:16;;;;;;;2.40;1.77;;;;;;;;;;4954303;28;20031;-66
2022/02/03 20:33:41;;;;;;;2.35;1.17;;;;;;;;;;4948038;28;20055;-68
2022/02/03 20:36:07;;;;;;;2.72;1.30;;;;;;;;;;4953807;28;20392;-67
2022/02/03 20:38:32;;;;;;;3.03;1.75;;;;;;;;;;4947168;28;20031;-65
2022/02/03 20:40:58;;;;;;;2.63;2.00;;;;;;;;;;4949655;28;20126;-67
2022/02/03 20:43:24;;;;;;;2.10;1.63;;;;;;;;;;4946281;28;20042;-65
2022/02/03 20:45:50;;;;;;;2.72;1.40;;;;;;;;;;4945926;28;20023;-66
2022/02/03 20:48:15;;;;;;;3.08;1.95;;;;;;;;;;4949629;28;20035;-66
2022/02/03 20:50:41;;;;;;;2.40;1.80;;;;;;;;;;4946727;28;20127;-63
2022/02/03 20:53:07;;;;;;;2.40;1.15;;;;;;;;;;4948406;29;20118;-67
2022/02/03 20:55:32;;;;;;;1.38;1.10;;;;;;;;;;4947389;28;20106;-67
2022/02/03 20:57:58;;;;;;;2.83;1.70;;;;;;;;;;4951042;28;20045;-64
2022/02/03 21:00:34;;;;;;;2.47;1.58;;;;;;;;;;4948766;28;20027;-62
2022/02/03 21:03:08;;;;;;;3.58;2.28;;;;;;;;;;4965343;28;20034;-65
2022/02/03 21:05:33;;;;;;;2.40;2.20;;;;;;;;;;4953030;28;20381;-66
2022/02/03 21:07:59;;;;;;;2.30;1.38;;;;;;;;;;4953582;28;20015;-65
2022/02/03 21:10:28;;;;;;;2.53;1.70;;;;;;;;;;4953914;28;20074;-66
2022/02/03 21:12:55;;;;;;;2.58;1.80;;;;;;;;;;4938404;29;20476;-67
2022/02/03 21:15:24;;;;;;;3.15;2.08;;;;;;;;;;4952369;29;20015;-66
2022/02/03 21:17:50;;;;;;;2.33;1.40;;;;;;;;;;4952777;28;20025;-67
2022/02/03 21:20:18;;;;;;;4.25;2.03;;;;;;;;;;4950380;28;20428;-64
2022/02/03 21:22:43;;;;;;;3.70;1.98;;;;;;;;;;4943154;28;20051;-65
2022/02/03 21:25:23;;;;;;;3.88;2.30;;;;;;;;;;4948174;28;20081;-65
2022/02/03 21:27:50;;;;;;;2.95;2.28;;;;;;;;;;4954675;28;20023;-66
2022/02/03 21:30:16;;;;;;;3.65;2.60;;;;;;;;;;4952572;28;20388;-68
2022/02/03 21:32:42;;;;;;;2.90;1.35;;;;;;;;;;4951747;29;20031;-66
2022/02/03 21:35:08;;;;;;;3.00;1.73;;;;;;;;;;4953255;28;20035;-65
2022/02/03 21:37:33;;;;;;;3.03;1.73;;;;;;;;;;4953884;28;20023;-67
2022/02/03 21:39:59;;;;;;;2.70;1.67;;;;;;;;;;4952124;29;20449;-66
2022/02/03 21:42:24;;;;;;;2.20;1.77;;;;;;;;;;4952510;29;20485;-66
2022/02/03 21:44:49;;;;;;;3.83;2.13;;;;;;;;;;4956582;28;20444;-66
2022/02/03 21:47:15;;;;;;;3.30;1.70;;;;;;;;;;4947432;28;20170;-66
2022/02/03 21:49:40;;;;;;;3.92;2.30;;;;;;;;;;4951933;29;20148;-67
2022/02/03 21:52:05;;;;;;;4.35;2.38;;;;;;;;;;4947304;28;20027;-66
2022/02/03 21:54:36;;;;;;;2.80;1.85;;;;;;;;;;4965316;28;20030;-68
2022/02/03 21:57:03;;;;;;;3.05;2.05;;;;;;;;;;4952656;29;20034;-66
2022/02/03 21:59:28;;;;;;;2.05;1.85;;;;;;;;;;4953381;28;20027;-65
2022/02/03 22:01:53;;;;;;;4.95;2.53;;;;;;;;;;4953053;29;20107;-66
2022/02/03 22:04:19;;;;;;;3.05;2.13;;;;;;;;;;4945275;29;20026;-63
2022/02/03 22:06:44;;;;;;;5.18;2.20;;;;;;;;;;4950039;28;20039;-64
2022/02/03 22:09:09;;;;;;;2.15;1.15;;;;;;;;;;4951550;28;20023;-66
2022/02/03 22:11:34;;;;;;;4.82;2.20;;;;;;;;;;4952579;29;20027;-66
2022/02/03 22:14:00;;;;;;;3.95;2.67;;;;;;;;;;4953725;28;20031;-67
2022/02/03 22:16:27;;;;;;;3.22;2.35;;;;;;;;;;4951477;29;20083;-66
2022/02/03 22:18:52;;;;;;;3.92;2.50;;;;;;;;;;4951171;29;20480;-65
2022/02/03 22:24:31;;;;;;;4.72;2.38;;;;;;;;;;4950470;29;20034;-67
2022/02/03 22:50:20;;;;;;;5.28;2.65;;;;;;;;;;4948495;28;20113;-64
2022/02/03 22:52:45;;;;;;;4.88;3.53;;;;;;;;;;4946185;28;20488;-64
2022/02/03 22:55:11;;;;;;;4.05;2.78;;;;;;;;;;4949879;28;20023;-62
2022/02/03 22:57:36;;;;;;;5.03;2.78;;;;;;;;;;4951555;28;20110;-66
2022/02/03 23:00:16;;;;;;;5.88;3.70;;;;;;;;;;4945830;28;20535;-64
2022/02/03 23:02:41;;;;;;;8.35;2.67;;;;;;;;;;4946465;28;20054;-65
2022/02/03 23:05:07;;;;;;;4.55;2.65;;;;;;;;;;4948766;28;20527;-65
2022/02/03 23:10:19;;;;;;;4.05;2.97;;;;;;;;;;4943773;29;20179;-65
2022/02/03 23:17:45;;;;;;;4.78;3.03;;;;;;;;;;4948495;28;20043;-65
2022/02/03 23:20:15;;;;;;;4.75;3.00;;;;;;;;;;4946537;28;20035;-62
2022/02/03 23:22:42;;;;;;;6.38;4.13;;;;;;;;;;4941835;28;20035;-64
2022/02/03 23:25:10;;;;;;;5.68;3.50;;;;;;;;;;4941810;28;20468;-58
2022/02/03 23:30:01;;;;;;;4.80;2.83;;;;;;;;;;4950471;28;20146;-65
2022/02/03 23:32:27;;;;;;;4.55;3.20;;;;;;;;;;4951681;28;20053;-66
2022/02/03 23:35:10;;;;;;;5.03;2.83;;;;;;;;;;4952136;28;20397;-65
2022/02/03 23:37:36;;;;;;;4.00;2.90;;;;;;;;;;4951289;28;20032;-66
2022/02/03 23:40:11;;;;;;;6.88;3.60;;;;;;;;;;4951692;29;20118;-64
2022/02/03 23:45:37;;;;;;;4.70;3.05;;;;;;;;;;4938621;29;20065;-65
2022/02/03 23:51:19;;;;;;;3.22;2.67;;;;;;;;;;4948768;28;20039;-66
